Time;durP1;ratioP1;P1;durP2;ratioP2;P2;SDS_P1;SDS_P2;PMS_P1;PMS_P2;Temp;Humidity;BMP_temperature;BMP_pressure;BME280_temperature;BME280_humidity;BME280_pressure;Samples;Min_cycle;Max_cycle;Signal;HPM_P1;HPM_P2
2022/03/19 00:01:21;;;;;;;72.55;48.85;;;;;;;;;;4997739;28;20425;-74
2022/03/19 00:04:06;;;;;;;68.75;48.33;;;;;;;;;;4988385;28;20044;-61
2022/03/19 00:06:52;;;;;;;66.47;48.40;;;;;;;;;;4978222;28;20400;-61
2022/03/19 00:09:39;;;;;;;67.15;48.85;;;;;;;;;;4994564;28;20136;-62
2022/03/19 00:12:24;;;;;;;65.43;48.22;;;;;;;;;;4988413;28;20033;-62
2022/03/19 00:15:10;;;;;;;72.88;51.70;;;;;;;;;;5007367;28;20018;-62
2022/03/19 00:17:57;;;;;;;64.53;49.47;;;;;;;;;;4979121;28;20089;-62
2022/03/19 00:20:42;;;;;;;64.22;47.58;;;;;;;;;;5001425;28;20041;-71
2022/03/19 00:23:27;;;;;;;67.22;50.13;;;;;;;;;;4993085;28;20059;-61
2022/03/19 00:26:13;;;;;;;67.53;50.92;;;;;;;;;;4991073;28;20053;-61
2022/03/19 00:28:58;;;;;;;69.63;49.05;;;;;;;;;;4987798;28;20508;-62
2022/03/19 00:31:43;;;;;;;66.10;50.00;;;;;;;;;;5003300;28;20076;-65
2022/03/19 00:34:29;;;;;;;58.95;44.30;;;;;;;;;;4987106;28;20069;-62
2022/03/19 00:37:14;;;;;;;61.97;45.75;;;;;;;;;;4983294;28;20029;-62
2022/03/19 00:39:59;;;;;;;60.85;46.28;;;;;;;;;;4985772;28;20573;-65
2022/03/19 00:42:45;;;;;;;63.40;47.00;;;;;;;;;;4977528;28;20113;-60
2022/03/19 00:45:30;;;;;;;65.60;46.83;;;;;;;;;;4992983;28;20030;-62
2022/03/19 00:48:16;;;;;;;61.80;46.83;;;;;;;;;;4988655;28;20037;-61
2022/03/19 00:51:01;;;;;;;65.82;47.40;;;;;;;;;;4991738;28;20030;-66
2022/03/19 00:53:46;;;;;;;65.07;48.90;;;;;;;;;;4978578;28;20030;-63
2022/03/19 00:56:33;;;;;;;66.68;47.28;;;;;;;;;;4990025;28;20085;-61
2022/03/19 00:59:18;;;;;;;65.55;48.05;;;;;;;;;;4991258;28;20026;-64
2022/03/19 01:02:03;;;;;;;63.92;47.15;;;;;;;;;;4999797;28;20709;-63
2022/03/19 01:04:49;;;;;;;62.20;46.50;;;;;;;;;;4984727;28;20128;-66
2022/03/19 01:07:40;;;;;;;64.10;46.58;;;;;;;;;;4994533;28;20074;-63
2022/03/19 01:10:26;;;;;;;64.35;45.00;;;;;;;;;;4990954;28;20389;-63
2022/03/19 01:13:12;;;;;;;65.10;47.38;;;;;;;;;;4986311;28;20190;-65
2022/03/19 01:15:57;;;;;;;61.88;44.63;;;;;;;;;;4991853;28;20389;-62
2022/03/19 01:18:42;;;;;;;61.65;44.65;;;;;;;;;;4999757;28;20042;-62
2022/03/19 01:21:27;;;;;;;61.63;45.47;;;;;;;;;;4983921;28;20027;-64
2022/03/19 01:24:13;;;;;;;63.10;45.25;;;;;;;;;;4989707;28;20129;-60
2022/03/19 01:26:58;;;;;;;62.47;45.08;;;;;;;;;;4989243;28;20038;-63
2022/03/19 01:29:44;;;;;;;64.47;45.20;;;;;;;;;;4990213;28;20497;-64
2022/03/19 01:32:29;;;;;;;64.05;44.65;;;;;;;;;;4982345;28;20460;-65
2022/03/19 01:35:16;;;;;;;56.83;44.45;;;;;;;;;;4999861;28;20030;-61
2022/03/19 01:38:04;;;;;;;55.47;42.25;;;;;;;;;;4999423;28;20204;-70
2022/03/19 01:40:50;;;;;;;61.47;43.00;;;;;;;;;;4984447;28;20116;-69
2022/03/19 01:43:38;;;;;;;58.28;44.50;;;;;;;;;;4991770;28;20069;-69
2022/03/19 01:46:23;;;;;;;59.08;43.63;;;;;;;;;;4993661;28;20037;-69
2022/03/19 01:49:09;;;;;;;58.50;43.17;;;;;;;;;;4997320;28;20354;-69
2022/03/19 01:51:54;;;;;;;59.75;46.33;;;;;;;;;;4996062;28;20080;-60
2022/03/19 01:54:40;;;;;;;61.30;45.50;;;;;;;;;;5004029;28;20265;-73
2022/03/19 01:57:28;;;;;;;56.78;43.42;;;;;;;;;;4989280;28;20477;-74
2022/03/19 02:00:16;;;;;;;59.38;44.38;;;;;;;;;;5010294;28;20611;-74
2022/03/19 02:03:02;;;;;;;59.13;45.33;;;;;;;;;;5008887;28;20040;-74
2022/03/19 02:05:48;;;;;;;67.13;43.78;;;;;;;;;;4992133;28;20040;-73
2022/03/19 02:08:33;;;;;;;62.78;42.80;;;;;;;;;;4980065;28;20433;-72
2022/03/19 02:11:20;;;;;;;57.75;42.90;;;;;;;;;;4982642;28;20030;-61
2022/03/19 02:14:06;;;;;;;61.28;44.75;;;;;;;;;;4992300;28;20477;-64
2022/03/19 02:16:51;;;;;;;56.97;41.30;;;;;;;;;;4980548;28;20077;-64
2022/03/19 02:19:48;;;;;;;60.08;44.58;;;;;;;;;;4977616;28;20041;-65
2022/03/19 02:22:33;;;;;;;59.63;41.97;;;;;;;;;;4993768;28;20042;-65
2022/03/19 02:25:37;;;;;;;58.22;42.33;;;;;;;;;;4988978;28;20038;-63
2022/03/19 02:28:22;;;;;;;61.40;41.92;;;;;;;;;;4996182;28;20235;-61
2022/03/19 02:31:07;;;;;;;55.85;40.53;;;;;;;;;;4992808;28;20041;-64
2022/03/19 02:33:52;;;;;;;56.03;44.78;;;;;;;;;;4983176;28;20121;-74
2022/03/19 02:36:41;;;;;;;64.20;43.72;;;;;;;;;;5006581;28;20059;-76
2022/03/19 02:39:33;;;;;;;58.45;42.38;;;;;;;;;;4984261;28;20029;-74
2022/03/19 02:42:20;;;;;;;59.38;46.55;;;;;;;;;;4986462;28;20093;-75
2022/03/19 02:45:06;;;;;;;58.10;41.30;;;;;;;;;;4993299;28;20062;-75
2022/03/19 02:47:57;;;;;;;56.20;42.30;;;;;;;;;;4985789;28;20061;-64
2022/03/19 02:50:42;;;;;;;57.55;43.67;;;;;;;;;;4993867;28;20037;-67
2022/03/19 02:53:27;;;;;;;63.35;43.95;;;;;;;;;;4989526;28;20030;-66
2022/03/19 02:56:13;;;;;;;62.03;42.17;;;;;;;;;;4994090;28;20033;-65
2022/03/19 02:58:58;;;;;;;58.92;40.75;;;;;;;;;;4998483;28;20045;-65
2022/03/19 03:01:47;;;;;;;52.78;41.15;;;;;;;;;;4981496;28;20045;-64
2022/03/19 03:04:32;;;;;;;56.55;42.17;;;;;;;;;;4982951;28;20069;-67
2022/03/19 03:07:18;;;;;;;55.30;40.13;;;;;;;;;;4995895;28;20524;-61
2022/03/19 03:10:03;;;;;;;56.72;39.63;;;;;;;;;;4990724;28;20045;-63
2022/03/19 03:12:48;;;;;;;53.05;39.42;;;;;;;;;;4993873;28;20615;-63
2022/03/19 03:15:34;;;;;;;56.30;41.10;;;;;;;;;;4988651;28;20432;-62
2022/03/19 03:18:19;;;;;;;58.90;41.20;;;;;;;;;;4993535;28;20068;-65
2022/03/19 03:21:04;;;;;;;57.85;41.00;;;;;;;;;;4990790;28;20397;-64
2022/03/19 03:23:50;;;;;;;60.35;41.05;;;;;;;;;;5005352;28;20053;-66
2022/03/19 03:26:35;;;;;;;56.22;43.38;;;;;;;;;;4987558;28;20034;-62
2022/03/19 03:29:21;;;;;;;59.15;43.17;;;;;;;;;;4990099;28;20446;-62
2022/03/19 03:32:06;;;;;;;61.03;41.45;;;;;;;;;;4985555;28;20041;-61
2022/03/19 03:34:52;;;;;;;57.78;41.83;;;;;;;;;;4988998;28;20037;-61
2022/03/19 03:37:37;;;;;;;56.08;41.35;;;;;;;;;;4984906;28;20045;-62
2022/03/19 03:40:22;;;;;;;56.05;40.33;;;;;;;;;;4999402;28;20029;-62
2022/03/19 03:43:08;;;;;;;56.45;42.17;;;;;;;;;;4984741;28;20049;-65
2022/03/19 03:45:53;;;;;;;56.78;40.97;;;;;;;;;;4979191;28;20497;-62
2022/03/19 03:48:39;;;;;;;51.97;39.97;;;;;;;;;;4993361;28;20042;-66
2022/03/19 03:51:24;;;;;;;60.10;41.50;;;;;;;;;;4976314;28;20477;-66
2022/03/19 03:54:09;;;;;;;54.75;40.70;;;;;;;;;;4996919;28;20165;-65
2022/03/19 03:56:55;;;;;;;58.35;39.65;;;;;;;;;;4984699;28;20377;-65
2022/03/19 03:59:40;;;;;;;55.33;39.63;;;;;;;;;;4977436;28;20027;-65
2022/03/19 04:02:25;;;;;;;54.90;39.42;;;;;;;;;;4991605;28;20097;-65
2022/03/19 04:05:10;;;;;;;57.92;40.10;;;;;;;;;;4986019;28;20042;-62
2022/03/19 04:07:56;;;;;;;55.22;42.15;;;;;;;;;;4981607;28;20068;-63
2022/03/19 04:10:42;;;;;;;60.35;40.80;;;;;;;;;;5001798;28;20129;-63
2022/03/19 04:13:27;;;;;;;56.35;40.25;;;;;;;;;;4979386;28;20030;-63
2022/03/19 04:16:12;;;;;;;58.63;41.95;;;;;;;;;;4979752;28;20036;-63
2022/03/19 04:18:57;;;;;;;58.65;41.45;;;;;;;;;;4987459;28;20568;-62
2022/03/19 04:21:42;;;;;;;54.88;39.33;;;;;;;;;;4979993;28;20371;-73
2022/03/19 04:24:28;;;;;;;50.40;39.65;;;;;;;;;;4991792;28;20102;-61
2022/03/19 04:27:14;;;;;;;55.05;39.15;;;;;;;;;;4998651;28;20040;-65
2022/03/19 04:29:59;;;;;;;57.35;39.85;;;;;;;;;;4983736;28;20137;-64
2022/03/19 04:32:48;;;;;;;53.70;38.67;;;;;;;;;;4981771;28;20473;-62
2022/03/19 04:38:39;;;;;;;56.03;39.45;;;;;;;;;;4991058;28;20057;-64
2022/03/19 04:41:25;;;;;;;52.72;39.38;;;;;;;;;;4977800;28;20049;-65
2022/03/19 04:44:10;;;;;;;52.00;39.00;;;;;;;;;;4990328;28;20129;-65
2022/03/19 04:46:55;;;;;;;53.10;37.88;;;;;;;;;;4991121;28;20038;-65
2022/03/19 04:49:40;;;;;;;54.95;40.78;;;;;;;;;;5005860;28;20026;-64
2022/03/19 04:52:26;;;;;;;52.67;38.80;;;;;;;;;;5002779;28;20444;-64
2022/03/19 04:55:11;;;;;;;51.67;39.75;;;;;;;;;;4984886;28;20031;-63
2022/03/19 04:57:56;;;;;;;56.67;40.90;;;;;;;;;;4958971;28;20060;-64
2022/03/19 05:00:42;;;;;;;53.00;39.08;;;;;;;;;;4980053;28;20086;-66
2022/03/19 05:03:27;;;;;;;49.95;37.35;;;;;;;;;;4980984;28;20029;-65
2022/03/19 05:06:13;;;;;;;51.10;37.13;;;;;;;;;;4992469;28;20041;-65
2022/03/19 05:12:02;;;;;;;50.95;38.25;;;;;;;;;;4993004;28;20130;-65
2022/03/19 05:14:47;;;;;;;51.83;38.60;;;;;;;;;;4978195;28;20046;-63
2022/03/19 05:17:33;;;;;;;52.75;38.25;;;;;;;;;;4990698;28;20038;-60
2022/03/19 05:20:18;;;;;;;51.13;37.85;;;;;;;;;;4985930;28;20195;-62
2022/03/19 05:23:06;;;;;;;50.78;38.60;;;;;;;;;;4999296;28;20061;-66
2022/03/19 05:25:52;;;;;;;49.05;37.78;;;;;;;;;;4987508;28;20033;-61
2022/03/19 05:28:37;;;;;;;51.92;38.10;;;;;;;;;;4978987;28;20701;-60
2022/03/19 05:31:22;;;;;;;50.65;37.72;;;;;;;;;;4974711;28;20124;-60
2022/03/19 05:37:12;;;;;;;54.10;38.20;;;;;;;;;;4981788;28;20040;-60
2022/03/19 05:39:59;;;;;;;53.30;40.00;;;;;;;;;;5003726;28;20336;-60
2022/03/19 05:42:45;;;;;;;52.78;39.30;;;;;;;;;;4980708;28;20494;-63
2022/03/19 05:45:30;;;;;;;48.85;36.75;;;;;;;;;;4988923;28;20128;-63
2022/03/19 05:48:16;;;;;;;57.63;41.70;;;;;;;;;;4995656;28;20080;-64
2022/03/19 05:51:01;;;;;;;53.72;37.92;;;;;;;;;;4995754;28;20049;-61
2022/03/19 05:53:46;;;;;;;50.90;37.97;;;;;;;;;;4997278;28;20045;-65
2022/03/19 05:56:32;;;;;;;54.13;39.88;;;;;;;;;;5047102;23;20041;-67
2022/03/19 05:59:19;;;;;;;50.83;37.45;;;;;;;;;;5003090;28;20167;-65
2022/03/19 06:02:06;;;;;;;52.47;36.63;;;;;;;;;;4996028;28;20129;-66
2022/03/19 06:04:51;;;;;;;54.78;39.05;;;;;;;;;;5007417;28;20496;-67
2022/03/19 06:07:37;;;;;;;51.42;37.90;;;;;;;;;;5015246;28;20045;-65
2022/03/19 06:10:22;;;;;;;55.90;39.03;;;;;;;;;;5015162;28;20056;-65
2022/03/19 06:13:07;;;;;;;55.03;39.65;;;;;;;;;;5009344;28;20666;-64
2022/03/19 06:15:52;;;;;;;52.60;39.42;;;;;;;;;;4991358;28;20116;-65
2022/03/19 06:18:38;;;;;;;53.13;37.53;;;;;;;;;;5007069;28;20563;-65
2022/03/19 06:21:23;;;;;;;52.35;37.88;;;;;;;;;;5008892;28;20033;-65
2022/03/19 06:24:09;;;;;;;54.05;37.53;;;;;;;;;;5023869;28;20037;-65
2022/03/19 06:26:55;;;;;;;55.58;39.20;;;;;;;;;;5002841;28;20037;-65
2022/03/19 06:29:40;;;;;;;48.58;37.15;;;;;;;;;;4999986;28;20037;-66
2022/03/19 06:32:25;;;;;;;51.03;36.42;;;;;;;;;;4980147;28;20041;-66
2022/03/19 06:35:10;;;;;;;52.67;37.97;;;;;;;;;;5007853;28;20029;-66
2022/03/19 06:37:56;;;;;;;54.03;37.38;;;;;;;;;;4989646;28;20474;-66
2022/03/19 06:40:41;;;;;;;49.20;36.45;;;;;;;;;;4987759;28;20134;-66
2022/03/19 06:43:26;;;;;;;50.55;36.85;;;;;;;;;;5012083;28;20030;-67
2022/03/19 06:46:12;;;;;;;50.83;37.17;;;;;;;;;;5005797;28;20041;-65
2022/03/19 06:48:57;;;;;;;50.70;36.10;;;;;;;;;;4991033;28;20037;-67
2022/03/19 06:51:42;;;;;;;45.95;34.63;;;;;;;;;;4987512;28;20045;-63
2022/03/19 06:54:27;;;;;;;51.05;38.28;;;;;;;;;;4989993;28;20053;-64
2022/03/19 06:57:13;;;;;;;51.00;37.03;;;;;;;;;;4992717;28;20083;-64
2022/03/19 06:59:58;;;;;;;51.67;35.08;;;;;;;;;;4993498;28;20194;-63
2022/03/19 07:02:47;;;;;;;49.83;37.38;;;;;;;;;;4975122;28;20038;-65
2022/03/19 07:05:33;;;;;;;52.35;37.90;;;;;;;;;;4993784;28;20504;-67
2022/03/19 07:08:18;;;;;;;49.75;36.60;;;;;;;;;;4991274;28;20046;-64
2022/03/19 07:11:04;;;;;;;55.63;37.53;;;;;;;;;;4984226;28;20091;-64
2022/03/19 07:13:49;;;;;;;52.67;34.83;;;;;;;;;;5010028;28;20029;-64
2022/03/19 07:16:35;;;;;;;50.05;36.40;;;;;;;;;;4990922;28;20267;-64
2022/03/19 07:19:20;;;;;;;49.70;37.42;;;;;;;;;;4993586;28;20374;-64
2022/03/19 07:22:05;;;;;;;45.05;34.92;;;;;;;;;;4988796;28;20034;-65
2022/03/19 07:24:50;;;;;;;48.00;36.70;;;;;;;;;;4991294;28;20099;-67
2022/03/19 07:27:36;;;;;;;50.25;36.75;;;;;;;;;;4996942;28;20042;-64
2022/03/19 07:30:21;;;;;;;47.95;34.60;;;;;;;;;;4992237;28;20026;-64
2022/03/19 07:33:06;;;;;;;46.25;34.05;;;;;;;;;;5007148;28;20366;-66
2022/03/19 07:35:52;;;;;;;43.67;34.45;;;;;;;;;;4977757;28;20037;-68
2022/03/19 07:38:37;;;;;;;45.05;34.70;;;;;;;;;;4988802;28;20388;-64
2022/03/19 07:44:26;;;;;;;44.20;34.03;;;;;;;;;;4999882;28;20037;-65
2022/03/19 07:47:12;;;;;;;44.15;33.75;;;;;;;;;;5000034;28;20221;-65
2022/03/19 07:49:57;;;;;;;50.10;34.25;;;;;;;;;;4993082;28;20096;-68
2022/03/19 07:52:43;;;;;;;48.15;33.30;;;;;;;;;;5004821;28;20041;-66
2022/03/19 07:55:29;;;;;;;42.20;33.10;;;;;;;;;;4992768;28;20034;-65
2022/03/19 07:58:14;;;;;;;40.78;30.65;;;;;;;;;;4990234;28;20034;-66
2022/03/19 08:00:59;;;;;;;40.08;30.25;;;;;;;;;;4979204;28;20050;-66
2022/03/19 08:03:45;;;;;;;38.65;29.08;;;;;;;;;;5004692;28;20436;-63
2022/03/19 08:06:30;;;;;;;40.92;29.35;;;;;;;;;;5002903;28;20033;-64
2022/03/19 08:09:15;;;;;;;39.97;30.35;;;;;;;;;;5000970;28;20040;-63
2022/03/19 08:12:01;;;;;;;40.65;29.42;;;;;;;;;;4997938;28;20030;-64
2022/03/19 08:14:46;;;;;;;40.67;28.88;;;;;;;;;;4990508;28;20060;-63
2022/03/19 08:17:32;;;;;;;40.10;29.35;;;;;;;;;;4991946;28;20036;-64
2022/03/19 08:20:17;;;;;;;35.42;27.63;;;;;;;;;;5016589;28;20099;-64
2022/03/19 08:23:03;;;;;;;38.25;27.83;;;;;;;;;;4992979;28;20165;-67
2022/03/19 08:25:48;;;;;;;37.92;26.90;;;;;;;;;;4992095;28;20567;-64
2022/03/19 08:28:33;;;;;;;34.20;25.63;;;;;;;;;;4991173;28;20112;-64
2022/03/19 08:31:18;;;;;;;37.92;28.65;;;;;;;;;;4992559;28;20040;-65
2022/03/19 08:34:03;;;;;;;37.45;26.63;;;;;;;;;;5003842;28;20042;-65
2022/03/19 08:36:49;;;;;;;34.10;27.48;;;;;;;;;;4998905;28;20319;-62
2022/03/19 08:42:38;;;;;;;35.20;24.98;;;;;;;;;;5005652;28;20041;-61
2022/03/19 08:45:23;;;;;;;38.58;26.58;;;;;;;;;;4988100;28;20049;-63
2022/03/19 08:48:09;;;;;;;34.33;26.20;;;;;;;;;;4992062;28;20037;-64
2022/03/19 08:51:39;;;;;;;35.25;24.52;;;;;;;;;;5010775;28;20240;-62
2022/03/19 08:54:00;;;;;;;31.77;24.30;;;;;;;;;;4991349;28;20034;-62
2022/03/19 08:56:46;;;;;;;31.40;22.98;;;;;;;;;;4989461;28;20034;-65
2022/03/19 08:59:31;;;;;;;30.27;22.92;;;;;;;;;;4970708;28;20048;-63
2022/03/19 09:02:17;;;;;;;32.47;22.83;;;;;;;;;;4991536;28;20392;-67
2022/03/19 09:05:02;;;;;;;29.83;23.05;;;;;;;;;;5004705;28;20168;-63
2022/03/19 09:07:48;;;;;;;31.55;24.60;;;;;;;;;;5006905;28;20191;-64
2022/03/19 09:10:33;;;;;;;29.85;22.10;;;;;;;;;;4995019;28;20038;-63
2022/03/19 09:13:18;;;;;;;30.20;22.67;;;;;;;;;;4995198;28;20026;-63
2022/03/19 09:16:04;;;;;;;29.25;21.50;;;;;;;;;;5006333;28;20042;-74
2022/03/19 09:18:49;;;;;;;39.17;26.40;;;;;;;;;;4992551;28;20512;-63
2022/03/19 09:21:36;;;;;;;28.60;21.77;;;;;;;;;;4991513;28;20088;-64
2022/03/19 09:24:21;;;;;;;35.10;25.27;;;;;;;;;;5005085;28;20038;-64
2022/03/19 09:27:07;;;;;;;30.52;21.77;;;;;;;;;;4992495;28;20046;-65
2022/03/19 09:29:52;;;;;;;34.92;25.48;;;;;;;;;;4993352;28;20045;-65
2022/03/19 09:32:37;;;;;;;32.83;24.33;;;;;;;;;;4994100;28;20037;-74
2022/03/19 09:35:23;;;;;;;32.60;24.17;;;;;;;;;;4990524;28;20038;-63
2022/03/19 09:38:08;;;;;;;33.47;24.92;;;;;;;;;;4993144;28;20057;-63
2022/03/19 09:40:54;;;;;;;30.02;24.30;;;;;;;;;;4990675;28;20057;-63
2022/03/19 09:43:39;;;;;;;33.72;24.73;;;;;;;;;;4996182;28;20068;-63
2022/03/19 09:46:25;;;;;;;31.73;24.50;;;;;;;;;;4992287;28;20049;-63
2022/03/19 09:49:10;;;;;;;31.48;23.45;;;;;;;;;;4987213;28;20117;-65
2022/03/19 09:51:57;;;;;;;34.05;25.27;;;;;;;;;;4988398;28;20030;-72
2022/03/19 09:54:42;;;;;;;34.15;26.90;;;;;;;;;;5030756;22;20107;-62
2022/03/19 09:57:28;;;;;;;31.77;25.23;;;;;;;;;;5026747;28;20030;-64
2022/03/19 10:00:13;;;;;;;32.72;25.48;;;;;;;;;;5013933;28;20033;-60
2022/03/19 10:03:03;;;;;;;30.52;23.42;;;;;;;;;;5012293;28;20134;-63
2022/03/19 10:08:56;;;;;;;31.27;24.75;;;;;;;;;;5011001;28;20030;-62
2022/03/19 10:11:41;;;;;;;31.40;26.92;;;;;;;;;;5016470;28;20037;-65
2022/03/19 10:14:26;;;;;;;36.28;23.60;;;;;;;;;;5013370;28;20374;-61
2022/03/19 10:17:24;;;;;;;31.58;24.98;;;;;;;;;;5027535;28;20077;-60
2022/03/19 10:20:10;;;;;;;28.92;23.45;;;;;;;;;;5006939;28;20030;-58
2022/03/19 10:22:56;;;;;;;31.38;24.98;;;;;;;;;;5014001;28;20030;-60
2022/03/19 10:25:42;;;;;;;32.65;25.25;;;;;;;;;;5018050;28;20100;-60
2022/03/19 10:28:31;;;;;;;29.73;25.00;;;;;;;;;;5018338;28;20417;-69
2022/03/19 10:31:27;;;;;;;30.10;25.88;;;;;;;;;;5031512;28;20082;-59
2022/03/19 10:34:13;;;;;;;29.92;25.40;;;;;;;;;;5033175;28;20528;-59
2022/03/19 10:36:59;;;;;;;31.65;25.30;;;;;;;;;;5033711;28;20285;-57
2022/03/19 10:39:47;;;;;;;32.15;25.48;;;;;;;;;;5039116;28;20071;-59
2022/03/19 10:42:37;;;;;;;30.83;26.48;;;;;;;;;;5048239;28;20033;-62
2022/03/19 10:45:23;;;;;;;31.65;27.27;;;;;;;;;;5035824;28;20090;-58
2022/03/19 10:48:09;;;;;;;30.35;26.17;;;;;;;;;;5048152;28;20345;-69
2022/03/19 10:50:55;;;;;;;29.73;24.60;;;;;;;;;;5027288;28;20045;-60
2022/03/19 10:53:40;;;;;;;30.77;24.10;;;;;;;;;;5034117;28;20029;-63
2022/03/19 10:56:25;;;;;;;33.40;27.27;;;;;;;;;;5047248;28;20043;-63
2022/03/19 10:59:10;;;;;;;34.42;28.65;;;;;;;;;;5032229;28;20133;-63
2022/03/19 11:01:57;;;;;;;33.38;26.83;;;;;;;;;;5032631;28;20082;-63
2022/03/19 11:04:42;;;;;;;30.42;25.60;;;;;;;;;;5030776;28;20036;-65
2022/03/19 11:07:30;;;;;;;31.67;27.27;;;;;;;;;;5028922;28;20037;-65
2022/03/19 11:10:19;;;;;;;34.15;27.40;;;;;;;;;;5041052;28;20061;-66
2022/03/19 11:13:05;;;;;;;36.08;28.35;;;;;;;;;;5039336;28;20088;-63
2022/03/19 11:15:54;;;;;;;37.72;28.77;;;;;;;;;;5031657;28;20033;-65
2022/03/19 11:18:43;;;;;;;37.10;29.52;;;;;;;;;;5032560;28;20033;-65
2022/03/19 11:21:30;;;;;;;31.73;26.07;;;;;;;;;;5044021;28;20040;-67
2022/03/19 11:24:23;;;;;;;31.75;26.20;;;;;;;;;;5028378;28;20087;-60
2022/03/19 11:27:09;;;;;;;31.20;25.25;;;;;;;;;;5031753;28;20036;-59
2022/03/19 11:29:57;;;;;;;28.50;22.45;;;;;;;;;;5033626;28;20025;-58
2022/03/19 11:32:58;;;;;;;31.27;23.67;;;;;;;;;;5040041;28;20049;-59
2022/03/19 11:35:53;;;;;;;27.25;21.30;;;;;;;;;;5026967;28;20499;-57
2022/03/19 11:38:42;;;;;;;24.45;19.95;;;;;;;;;;5027473;28;20115;-56
2022/03/19 11:41:29;;;;;;;26.80;20.25;;;;;;;;;;5031836;28;20033;-62
2022/03/19 11:44:15;;;;;;;22.20;16.95;;;;;;;;;;5033124;28;20286;-63
2022/03/19 11:47:02;;;;;;;24.33;16.55;;;;;;;;;;5044650;28;20024;-63
2022/03/19 11:49:54;;;;;;;20.60;14.07;;;;;;;;;;5046882;28;20502;-62
2022/03/19 11:52:40;;;;;;;19.48;14.75;;;;;;;;;;5029175;28;20376;-62
2022/03/19 11:55:29;;;;;;;20.00;13.85;;;;;;;;;;5032661;28;20033;-63
2022/03/19 11:58:14;;;;;;;20.52;14.68;;;;;;;;;;5033806;28;21290;-63
2022/03/19 12:01:01;;;;;;;18.10;13.15;;;;;;;;;;5046854;28;20052;-58
2022/03/19 12:04:05;;;;;;;18.80;14.35;;;;;;;;;;5054020;28;20092;-59
2022/03/19 12:06:51;;;;;;;17.08;13.18;;;;;;;;;;5026900;28;20041;-59
2022/03/19 12:09:40;;;;;;;18.00;13.60;;;;;;;;;;5028277;28;20065;-59
2022/03/19 12:12:26;;;;;;;18.02;12.55;;;;;;;;;;5016953;28;20345;-55
2022/03/19 12:15:30;;;;;;;19.42;12.55;;;;;;;;;;5024586;28;20491;-59
2022/03/19 12:18:36;;;;;;;17.20;11.60;;;;;;;;;;5038170;28;20498;-65
2022/03/19 12:21:21;;;;;;;18.75;13.10;;;;;;;;;;5043888;28;20059;-60
2022/03/19 12:24:07;;;;;;;17.90;11.93;;;;;;;;;;5023339;28;20029;-61
2022/03/19 12:26:54;;;;;;;20.10;13.43;;;;;;;;;;5024091;28;20037;-62
2022/03/19 12:29:40;;;;;;;21.33;13.85;;;;;;;;;;5045531;28;20072;-60
2022/03/19 12:32:25;;;;;;;18.33;12.40;;;;;;;;;;5032068;28;20422;-60
2022/03/19 12:35:10;;;;;;;17.52;11.88;;;;;;;;;;5052579;28;20339;-60
2022/03/19 12:37:56;;;;;;;17.20;11.02;;;;;;;;;;5031529;28;20037;-58
2022/03/19 12:43:46;;;;;;;22.40;11.50;;;;;;;;;;5028564;28;20384;-58
2022/03/19 12:46:32;;;;;;;20.45;12.85;;;;;;;;;;5035127;28;20337;-59
2022/03/19 12:49:17;;;;;;;17.60;12.13;;;;;;;;;;5027689;28;20175;-59
2022/03/19 12:52:12;;;;;;;19.15;11.23;;;;;;;;;;5035422;28;20464;-57
2022/03/19 12:54:58;;;;;;;20.95;12.63;;;;;;;;;;5045806;28;20120;-64
2022/03/19 12:57:52;;;;;;;17.70;12.02;;;;;;;;;;5031343;28;20041;-59
2022/03/19 13:00:38;;;;;;;17.15;11.27;;;;;;;;;;5045765;28;20340;-59
2022/03/19 13:03:32;;;;;;;15.68;9.48;;;;;;;;;;5033356;28;20606;-62
2022/03/19 13:06:25;;;;;;;15.60;10.30;;;;;;;;;;5023041;28;20121;-64
2022/03/19 13:09:11;;;;;;;14.52;8.90;;;;;;;;;;5039463;28;20029;-63
2022/03/19 13:11:56;;;;;;;15.43;10.45;;;;;;;;;;5036130;28;20190;-63
2022/03/19 13:14:47;;;;;;;12.88;8.82;;;;;;;;;;5033441;28;20040;-69
2022/03/19 13:17:34;;;;;;;16.67;10.82;;;;;;;;;;5037866;28;20116;-61
2022/03/19 13:20:19;;;;;;;14.45;10.02;;;;;;;;;;5034976;28;20158;-61
2022/03/19 13:23:04;;;;;;;17.70;10.35;;;;;;;;;;5035217;28;20048;-60
2022/03/19 13:25:50;;;;;;;15.57;9.63;;;;;;;;;;5034061;28;20277;-61
2022/03/19 13:28:35;;;;;;;15.20;10.70;;;;;;;;;;5035757;28;20037;-62
2022/03/19 13:31:21;;;;;;;13.90;9.05;;;;;;;;;;5024676;28;20120;-61
2022/03/19 13:34:06;;;;;;;14.38;8.95;;;;;;;;;;5035517;28;20041;-70
2022/03/19 13:37:08;;;;;;;16.88;9.25;;;;;;;;;;5034772;28;20021;-61
2022/03/19 13:39:58;;;;;;;11.07;7.38;;;;;;;;;;5042894;28;20033;-61
2022/03/19 13:42:44;;;;;;;;;;;;;;;;;;5034546;28;20043;-62
2022/03/19 13:45:31;;;;;;;12.05;8.15;;;;;;;;;;5035016;28;20352;-60
2022/03/19 13:48:21;;;;;;;16.40;8.35;;;;;;;;;;5034426;28;20915;-60
2022/03/19 13:51:07;;;;;;;13.05;8.18;;;;;;;;;;5032723;28;20397;-68
2022/03/19 13:53:53;;;;;;;14.85;8.50;;;;;;;;;;5044216;28;20107;-67
2022/03/19 13:57:07;;;;;;;14.57;8.35;;;;;;;;;;5021328;28;20056;-66
2022/03/19 14:00:01;;;;;;;16.00;7.75;;;;;;;;;;5029350;28;20369;-67
2022/03/19 14:02:54;;;;;;;15.27;7.45;;;;;;;;;;5028565;28;20044;-67
2022/03/19 14:05:41;;;;;;;11.55;6.95;;;;;;;;;;5034842;28;20094;-68
2022/03/19 14:08:26;;;;;;;13.55;6.53;;;;;;;;;;5032083;28;20383;-60
2022/03/19 14:11:12;;;;;;;11.77;6.32;;;;;;;;;;5027400;28;20083;-60
2022/03/19 14:13:57;;;;;;;10.68;5.70;;;;;;;;;;5032670;28;20075;-62
2022/03/19 14:16:56;;;;;;;11.35;5.57;;;;;;;;;;5034874;28;20687;-63
2022/03/19 14:19:41;;;;;;;10.90;5.95;;;;;;;;;;5029329;28;20045;-60
2022/03/19 14:22:26;;;;;;;11.63;6.22;;;;;;;;;;5018737;28;20083;-60
2022/03/19 14:25:11;;;;;;;11.52;5.60;;;;;;;;;;5033974;28;20029;-63
2022/03/19 14:28:07;;;;;;;11.23;5.70;;;;;;;;;;5028288;28;20041;-63
2022/03/19 14:30:54;;;;;;;8.75;4.90;;;;;;;;;;5021644;28;20021;-61
2022/03/19 14:33:39;;;;;;;10.77;5.32;;;;;;;;;;5033726;28;20472;-61
2022/03/19 14:36:26;;;;;;;10.65;5.15;;;;;;;;;;5034420;28;20858;-61
2022/03/19 14:39:12;;;;;;;11.52;6.28;;;;;;;;;;5033804;28;20036;-65
2022/03/19 14:41:59;;;;;;;9.25;4.93;;;;;;;;;;5035419;28;20032;-61
2022/03/19 14:44:45;;;;;;;8.77;4.32;;;;;;;;;;5039936;28;20374;-61
2022/03/19 14:47:35;;;;;;;11.30;4.63;;;;;;;;;;5033772;28;20037;-68
2022/03/19 14:50:21;;;;;;;9.25;5.07;;;;;;;;;;5033772;28;20036;-62
2022/03/19 14:53:06;;;;;;;12.80;5.03;;;;;;;;;;5034180;28;20040;-63
2022/03/19 14:55:53;;;;;;;7.25;4.63;;;;;;;;;;5037979;28;20040;-63
2022/03/19 14:58:39;;;;;;;10.20;5.00;;;;;;;;;;5031419;28;20041;-62
2022/03/19 15:01:24;;;;;;;7.88;4.18;;;;;;;;;;5029448;28;20451;-64
2022/03/19 15:04:11;;;;;;;9.40;4.43;;;;;;;;;;5029072;28;20082;-62
2022/03/19 15:06:56;;;;;;;8.80;4.80;;;;;;;;;;5042528;28;20360;-64
2022/03/19 15:09:41;;;;;;;9.55;5.30;;;;;;;;;;5032865;28;20044;-64
2022/03/19 15:12:27;;;;;;;18.88;13.60;;;;;;;;;;5033449;28;20040;-61
2022/03/19 15:15:12;;;;;;;11.70;6.88;;;;;;;;;;5052749;28;20047;-62
2022/03/19 15:17:57;;;;;;;11.48;7.07;;;;;;;;;;5032620;28;20075;-61
2022/03/19 15:20:44;;;;;;;21.05;9.65;;;;;;;;;;5031460;28;20189;-62
2022/03/19 15:23:29;;;;;;;11.48;6.43;;;;;;;;;;5033911;28;20073;-64
2022/03/19 15:26:15;;;;;;;11.50;6.75;;;;;;;;;;5032838;28;20171;-60
2022/03/19 15:29:00;;;;;;;14.70;9.02;;;;;;;;;;5033714;28;20024;-60
2022/03/19 15:31:45;;;;;;;10.88;6.05;;;;;;;;;;5046742;28;20060;-61
2022/03/19 15:34:31;;;;;;;19.30;12.40;;;;;;;;;;5033922;28;20369;-61
2022/03/19 15:37:16;;;;;;;10.80;5.10;;;;;;;;;;5033260;28;20080;-61
2022/03/19 15:40:02;;;;;;;12.05;5.68;;;;;;;;;;5032104;28;20397;-61
2022/03/19 15:42:47;;;;;;;13.52;6.63;;;;;;;;;;5022041;28;20029;-62
2022/03/19 15:45:39;;;;;;;17.60;7.75;;;;;;;;;;5025150;28;20078;-68
2022/03/19 15:48:24;;;;;;;13.80;6.03;;;;;;;;;;5026498;28;20039;-68
2022/03/19 15:51:10;;;;;;;16.17;10.68;;;;;;;;;;5024285;28;20070;-68
2022/03/19 15:53:55;;;;;;;36.33;25.77;;;;;;;;;;5019353;28;20070;-69
2022/03/19 15:56:40;;;;;;;10.80;6.28;;;;;;;;;;5030200;28;20033;-68
2022/03/19 15:59:25;;;;;;;13.88;6.35;;;;;;;;;;5046061;28;20052;-61
2022/03/19 16:02:11;;;;;;;11.45;5.05;;;;;;;;;;5023710;28;20025;-69
2022/03/19 16:04:56;;;;;;;13.18;6.20;;;;;;;;;;5032425;28;20569;-69
2022/03/19 16:07:41;;;;;;;10.88;5.63;;;;;;;;;;5025536;28;20036;-70
2022/03/19 16:10:26;;;;;;;14.82;5.20;;;;;;;;;;5018013;28;20060;-70
2022/03/19 16:13:12;;;;;;;17.40;6.10;;;;;;;;;;5028486;28;20041;-70
2022/03/19 16:15:57;;;;;;;10.50;5.30;;;;;;;;;;5046099;28;20032;-72
2022/03/19 16:18:43;;;;;;;10.68;5.45;;;;;;;;;;5034837;28;20242;-62
2022/03/19 16:21:28;;;;;;;9.60;4.97;;;;;;;;;;5022228;28;20412;-60
2022/03/19 16:24:13;;;;;;;11.93;5.85;;;;;;;;;;5030728;28;20079;-61
2022/03/19 16:26:59;;;;;;;9.77;5.57;;;;;;;;;;5030864;28;20037;-61
2022/03/19 16:29:44;;;;;;;11.10;4.75;;;;;;;;;;5023285;28;20148;-61
2022/03/19 16:32:29;;;;;;;8.77;5.00;;;;;;;;;;5023494;28;20126;-61
2022/03/19 16:35:15;;;;;;;10.68;5.50;;;;;;;;;;5030412;28;20060;-61